createdAt,value
2023-04-15T00:00:05.133Z,99437.34
2023-04-15T00:02:41.531Z,99439.28
2023-04-15T00:05:10.976Z,99434.97
2023-04-15T00:07:40.450Z,99431.84
2023-04-15T00:10:10.298Z,99429.50
2023-04-15T00:12:38.739Z,99437.97
2023-04-15T00:15:10.570Z,99432.09
2023-04-15T00:17:39.912Z,99425.19
2023-04-15T00:20:09.390Z,99427.63
2023-04-15T00:22:37.727Z,99423.97
2023-04-15T00:25:06.878Z,99429.22
2023-04-15T00:27:35.331Z,99421.28
2023-04-15T00:30:04.189Z,99418.47
2023-04-15T00:32:34.272Z,99421.66
2023-04-15T00:35:03.234Z,99411.72
2023-04-15T00:37:32.059Z,99413.81
2023-04-15T00:40:00.379Z,99416.38
2023-04-15T00:42:29.792Z,99423.88
2023-04-15T00:44:58.386Z,99414.97
2023-04-15T00:47:28.729Z,99410.09
2023-04-15T00:49:59.257Z,99411.34
2023-04-15T00:52:27.682Z,99415.34
2023-04-15T00:54:56.464Z,99414.94
2023-04-15T00:57:24.974Z,99416.75
2023-04-15T00:59:54.322Z,99408.44
2023-04-15T01:02:23.276Z,99412.41
2023-04-15T01:04:52.163Z,99419.88
2023-04-15T01:07:22.029Z,99407.50
2023-04-15T01:09:50.429Z,99410.72
2023-04-15T01:12:19.431Z,99413.50
2023-04-15T01:14:48.067Z,99412.88
2023-04-15T01:17:16.569Z,99406.81
2023-04-15T01:19:44.916Z,99409.63
2023-04-15T01:22:13.981Z,99410.88
2023-04-15T01:24:52.243Z,99403.81
2023-04-15T01:27:22.672Z,99414.78
2023-04-15T01:29:51.043Z,99416.75
2023-04-15T01:32:20.009Z,99414.38
2023-04-15T01:34:48.321Z,99414.00
2023-04-15T01:37:16.697Z,99406.66
2023-04-15T01:39:45.511Z,99408.81
2023-04-15T01:42:13.952Z,99415.88
2023-04-15T01:44:43.686Z,99416.34
2023-04-15T01:47:14.257Z,99412.47
2023-04-15T01:49:43.384Z,99408.41
2023-04-15T01:52:11.786Z,99411.38
2023-04-15T01:54:42.586Z,99403.16
2023-04-15T01:57:11.086Z,99402.56
2023-04-15T01:59:39.540Z,99401.34
2023-04-15T02:02:09.381Z,99406.97
2023-04-15T02:04:38.203Z,99410.22
2023-04-15T02:07:07.165Z,99406.66
2023-04-15T02:09:37.233Z,99409.44
2023-04-15T02:12:05.914Z,99408.75
2023-04-15T02:14:34.357Z,99409.31
2023-04-15T02:17:08.403Z,99415.19
2023-04-15T02:19:39.395Z,99416.94
2023-04-15T02:22:09.396Z,99416.94
2023-04-15T02:24:38.012Z,99418.41
2023-04-15T02:27:06.345Z,99417.22
2023-04-15T02:29:34.870Z,99416.03
2023-04-15T02:32:03.386Z,99416.22
2023-04-15T02:34:33.700Z,99411.59
2023-04-15T02:37:04.005Z,99414.78
2023-04-15T02:39:32.814Z,99412.72
2023-04-15T02:42:01.262Z,99412.47
2023-04-15T02:44:29.815Z,99421.25
2023-04-15T02:47:01.007Z,99408.25
2023-04-15T02:49:31.026Z,99413.06
2023-04-15T02:52:00.176Z,99411.00
2023-04-15T02:54:30.020Z,99422.25
2023-04-15T02:56:58.784Z,99415.00
2023-04-15T02:59:27.158Z,99416.72
2023-04-15T03:01:56.705Z,99412.63
2023-04-15T03:04:25.245Z,99416.59
2023-04-15T03:06:53.769Z,99417.16
2023-04-15T03:09:22.194Z,99421.84
2023-04-15T03:11:53.535Z,99415.81
2023-04-15T03:14:22.561Z,99414.03
2023-04-15T03:16:52.031Z,99420.19
2023-04-15T03:19:20.633Z,99423.09
2023-04-15T03:21:48.958Z,99415.75
2023-04-15T03:24:18.150Z,99417.56
2023-04-15T03:26:46.787Z,99406.31
2023-04-15T03:29:19.516Z,99407.06
2023-04-15T03:31:47.947Z,99415.50
2023-04-15T03:34:16.465Z,99413.06
2023-04-15T03:36:44.866Z,99411.97
2023-04-15T03:39:13.301Z,99411.53
2023-04-15T03:41:41.706Z,99399.97
2023-04-15T03:44:10.068Z,99399.41
2023-04-15T03:46:39.871Z,99408.31
2023-04-15T03:49:09.019Z,99400.66
2023-04-15T03:51:37.349Z,99412.16
2023-04-15T03:54:05.830Z,99405.00
2023-04-15T03:56:34.344Z,99396.91
2023-04-15T03:59:02.985Z,99401.13
2023-04-15T04:01:31.612Z,99405.94
2023-04-15T04:04:01.532Z,99398.25
2023-04-15T04:06:30.123Z,99399.69
2023-04-15T04:08:58.451Z,99402.03
2023-04-15T04:11:28.266Z,99395.88
2023-04-15T04:13:56.650Z,99396.19
2023-04-15T04:16:25.301Z,99399.16
2023-04-15T04:18:53.812Z,99403.50
2023-04-15T04:21:23.506Z,99399.28
2023-04-15T04:23:52.393Z,99385.22
2023-04-15T04:26:20.839Z,99395.97
2023-04-15T04:28:49.295Z,99400.59
2023-04-15T04:31:17.652Z,99396.78
2023-04-15T04:33:46.401Z,99399.47
2023-04-15T04:36:14.878Z,99399.56
2023-04-15T04:38:44.615Z,99403.44
2023-04-15T04:41:13.011Z,99408.56
2023-04-15T04:43:41.376Z,99408.41
2023-04-15T04:46:10.212Z,99407.00
2023-04-15T04:48:39.410Z,99409.44
2023-04-15T04:51:07.877Z,99410.84
2023-04-15T04:53:37.479Z,99422.13
2023-04-15T04:56:07.743Z,99416.97
2023-04-15T04:58:36.259Z,99408.38
2023-04-15T05:01:04.851Z,99421.97
2023-04-15T05:03:33.386Z,99424.66
2023-04-15T05:06:03.146Z,99417.25
2023-04-15T05:08:31.531Z,99425.00
2023-04-15T05:10:59.933Z,99416.81
2023-04-15T05:13:30.086Z,99418.47
2023-04-15T05:15:58.585Z,99424.28
2023-04-15T05:18:27.066Z,99428.81
2023-04-15T05:20:55.460Z,99435.66
2023-04-15T05:23:23.898Z,99429.72
2023-04-15T05:25:52.261Z,99436.88
2023-04-15T05:28:20.638Z,99437.16
2023-04-15T05:30:50.555Z,99439.13
2023-04-15T05:33:19.171Z,99429.56
2023-04-15T05:35:47.486Z,99453.50
2023-04-15T05:38:16.263Z,99445.84
2023-04-15T05:40:44.686Z,99443.50
2023-04-15T05:43:13.153Z,99455.16
2023-04-15T05:45:41.623Z,99456.97
2023-04-15T05:48:11.368Z,99449.38
2023-04-15T05:50:42.782Z,99455.88
2023-04-15T05:53:11.750Z,99451.63
2023-04-15T05:55:40.122Z,99451.44
2023-04-15T05:58:08.505Z,99463.56
2023-04-15T06:00:36.894Z,99462.13
2023-04-15T06:03:06.397Z,99457.78
2023-04-15T06:05:36.255Z,99465.00
2023-04-15T06:08:04.736Z,99457.31
2023-04-15T06:10:36.657Z,99459.31
2023-04-15T06:13:05.262Z,99436.88
2023-04-15T06:15:33.784Z,99462.84
2023-04-15T06:18:02.213Z,99468.06
2023-04-15T06:20:30.923Z,99472.47
2023-04-15T06:23:01.168Z,99471.63
2023-04-15T06:25:29.597Z,99470.81
2023-04-15T06:27:57.969Z,99474.13
2023-04-15T06:30:26.418Z,99471.28
2023-04-15T06:32:56.274Z,99475.75
2023-04-15T06:35:24.818Z,99475.69
2023-04-15T06:37:53.225Z,99476.56
2023-04-15T06:40:23.004Z,99475.28
2023-04-15T06:42:51.737Z,99475.94
2023-04-15T06:45:20.188Z,99473.94
2023-04-15T06:47:48.711Z,99482.44
2023-04-15T06:50:17.561Z,99486.13
2023-04-15T06:52:46.146Z,99484.81
2023-04-15T06:55:14.865Z,99485.72
2023-04-15T06:57:44.695Z,99488.22
2023-04-15T07:00:14.855Z,99487.25
2023-04-15T07:02:43.496Z,99482.13
2023-04-15T07:05:12.808Z,99498.16
2023-04-15T07:07:41.291Z,99486.81
2023-04-15T07:10:12.005Z,99498.00
2023-04-15T07:12:40.585Z,99494.81
2023-04-15T07:15:11.551Z,99494.47
2023-04-15T07:17:39.983Z,99499.94
2023-04-15T07:20:10.028Z,99495.34
2023-04-15T07:22:38.411Z,99485.44
2023-04-15T07:25:09.008Z,99495.25
2023-04-15T07:27:37.400Z,99493.81
2023-04-15T07:30:07.115Z,99498.28
2023-04-15T07:32:37.476Z,99501.56
2023-04-15T07:35:06.566Z,99499.44
2023-04-15T07:37:35.009Z,99488.25
2023-04-15T07:40:04.792Z,99500.59
2023-04-15T07:42:33.206Z,99500.94
2023-04-15T07:45:01.705Z,99497.97
2023-04-15T07:47:30.185Z,99498.81
2023-04-15T07:50:00.238Z,99500.66
2023-04-15T07:52:28.715Z,99503.72
2023-04-15T07:54:57.116Z,99501.75
2023-04-15T07:57:25.609Z,99505.41
2023-04-15T07:59:54.045Z,99501.44
2023-04-15T08:02:22.565Z,99503.44
2023-04-15T08:04:51.210Z,99500.28
2023-04-15T08:07:21.278Z,99495.63
2023-04-15T08:09:49.700Z,99502.47
2023-04-15T08:12:18.114Z,99499.47
2023-04-15T08:14:46.743Z,99485.91
2023-04-15T08:17:15.183Z,99509.03
2023-04-15T08:19:43.823Z,99503.31
2023-04-15T08:22:15.868Z,99502.94
2023-04-15T08:24:48.037Z,99503.38
2023-04-15T08:27:16.456Z,99501.56
2023-04-15T08:29:45.672Z,99510.28
2023-04-15T08:32:14.153Z,99509.47
2023-04-15T08:34:42.529Z,99492.88
2023-04-15T08:37:11.547Z,99497.75
2023-04-15T08:39:41.137Z,99495.72
2023-04-15T08:42:17.969Z,99506.66
2023-04-15T08:44:47.802Z,99505.78
2023-04-15T08:47:17.433Z,99500.34
2023-04-15T08:49:46.129Z,99509.44
2023-04-15T08:52:14.564Z,99500.50
2023-04-15T08:54:43.588Z,99504.75
2023-04-15T08:57:13.790Z,99496.84
2023-04-15T08:59:43.966Z,99511.28
2023-04-15T09:02:13.334Z,99508.00
2023-04-15T09:04:42.283Z,99505.38
2023-04-15T09:07:10.939Z,99510.69
2023-04-15T09:09:40.347Z,99507.44
2023-04-15T09:12:09.487Z,99509.28
2023-04-15T09:14:41.082Z,99515.97
2023-04-15T09:17:12.549Z,99508.69
2023-04-15T09:19:40.950Z,99513.94
2023-04-15T09:22:09.437Z,99517.56
2023-04-15T09:24:41.058Z,99513.06
2023-04-15T09:27:09.737Z,99518.53
2023-04-15T09:29:39.579Z,99519.69
2023-04-15T09:32:16.846Z,99514.72
2023-04-15T09:34:45.930Z,99534.44
2023-04-15T09:37:29.108Z,99533.38
2023-04-15T09:40:00.564Z,99532.16
2023-04-15T09:42:28.984Z,99540.28
2023-04-15T09:45:10.585Z,99540.28
2023-04-15T09:47:39.174Z,99527.53
2023-04-15T09:50:08.649Z,99541.97
2023-04-15T09:52:44.326Z,99542.38
2023-04-15T09:55:13.796Z,99537.94
2023-04-15T09:57:44.416Z,99547.28
2023-04-15T10:00:15.910Z,99550.72
2023-04-15T10:02:44.851Z,99552.75
2023-04-15T10:05:16.547Z,99551.72
2023-04-15T10:07:45.864Z,99555.19
2023-04-15T10:10:16.263Z,99558.63
2023-04-15T10:12:46.622Z,99558.63
2023-04-15T10:15:18.376Z,99567.75
2023-04-15T10:17:47.061Z,99573.84
2023-04-15T10:20:18.918Z,99576.50
2023-04-15T10:22:48.427Z,99578.75
2023-04-15T10:25:17.314Z,99570.00
2023-04-15T10:27:46.552Z,99587.88
2023-04-15T10:30:16.696Z,99581.78
2023-04-15T10:32:46.200Z,99581.34
2023-04-15T10:35:15.589Z,99584.16
2023-04-15T10:37:44.004Z,99589.25
2023-04-15T10:40:32.691Z,99596.78
2023-04-15T10:43:02.749Z,99588.00
2023-04-15T10:45:35.567Z,99597.94
2023-04-15T10:48:08.092Z,99597.50
2023-04-15T10:50:39.426Z,99603.22
2023-04-15T10:53:11.995Z,99602.81
2023-04-15T10:55:40.492Z,99606.66
2023-04-15T10:58:11.290Z,99606.44
2023-04-15T11:00:41.225Z,99598.34
2023-04-15T11:03:12.104Z,99594.31
2023-04-15T11:05:53.970Z,99599.19
2023-04-15T11:08:55.356Z,99598.19
2023-04-15T11:11:24.057Z,99589.66
2023-04-15T11:13:54.266Z,99609.16
2023-04-15T11:16:24.129Z,99604.47
2023-04-15T11:18:56.911Z,99609.38
2023-04-15T11:21:28.207Z,99618.50
2023-04-15T11:23:56.687Z,99617.28
2023-04-15T11:26:28.399Z,99613.06
2023-04-15T11:28:57.052Z,99613.28
2023-04-15T11:31:29.763Z,99623.81
2023-04-15T11:34:01.686Z,99631.13
2023-04-15T11:36:32.517Z,99634.19
2023-04-15T11:39:01.683Z,99640.88
2023-04-15T11:41:30.138Z,99638.06
2023-04-15T11:43:58.588Z,99644.94
2023-04-15T11:46:32.603Z,99649.38
2023-04-15T11:49:01.336Z,99650.38
2023-04-15T11:51:34.872Z,99655.88
2023-04-15T11:54:03.655Z,99654.88
2023-04-15T11:56:33.007Z,99665.22
2023-04-15T11:59:02.085Z,99649.16
2023-04-15T12:01:36.535Z,99659.69
2023-04-15T12:04:13.449Z,99665.97
2023-04-15T12:06:42.182Z,99668.41
2023-04-15T12:09:13.183Z,99673.88
2023-04-15T12:11:48.492Z,99682.19
2023-04-15T12:14:26.900Z,99685.22
2023-04-15T12:17:00.392Z,99688.22
2023-04-15T12:19:32.541Z,99696.13
2023-04-15T12:22:03.386Z,99697.97
2023-04-15T12:24:34.524Z,99701.63
2023-04-15T12:27:07.941Z,99708.69
2023-04-15T12:29:38.649Z,99711.91
2023-04-15T12:32:11.307Z,99719.13
2023-04-15T12:34:42.254Z,99708.25
2023-04-15T12:37:13.268Z,99710.72
2023-04-15T12:39:44.157Z,99720.56
2023-04-15T12:42:13.130Z,99719.94
2023-04-15T12:44:41.699Z,99729.66
2023-04-15T12:47:12.870Z,99724.84
2023-04-15T12:49:41.648Z,99726.81
2023-04-15T12:52:10.107Z,99734.56
2023-04-15T12:54:38.568Z,99742.09
2023-04-15T12:57:07.871Z,99724.84
2023-04-15T12:59:36.509Z,99746.09
2023-04-15T13:02:05.640Z,99746.91
2023-04-15T13:04:35.578Z,99753.22
2023-04-15T13:07:04.237Z,99755.22
2023-04-15T13:09:32.647Z,99752.81
2023-04-15T13:12:01.358Z,99758.19
2023-04-15T13:14:29.747Z,99755.91
2023-04-15T13:16:58.203Z,99759.75
2023-04-15T13:19:27.045Z,99759.91
2023-04-15T13:21:57.005Z,99760.13
2023-04-15T13:24:25.765Z,99757.72
2023-04-15T13:26:54.184Z,99760.56
2023-04-15T13:29:22.751Z,99759.75
2023-04-15T13:31:51.219Z,99763.22
2023-04-15T13:34:19.566Z,99762.09
2023-04-15T13:36:48.244Z,99754.44
2023-04-15T13:39:17.979Z,99750.50
2023-04-15T13:41:46.375Z,99767.03
2023-04-15T13:44:14.757Z,99759.41
2023-04-15T13:46:43.251Z,99775.03
2023-04-15T13:49:11.689Z,99776.25
2023-04-15T13:51:40.638Z,99773.94
2023-04-15T13:54:09.023Z,99772.56
2023-04-15T13:56:39.425Z,99775.63
2023-04-15T13:59:08.762Z,99776.16
2023-04-15T14:01:38.365Z,99777.63
2023-04-15T14:04:07.344Z,99775.22
2023-04-15T14:06:35.992Z,99778.50
2023-04-15T14:09:04.747Z,99787.44
2023-04-15T14:11:35.448Z,99779.91
2023-04-15T14:14:05.405Z,99788.56
2023-04-15T14:16:34.500Z,99784.34
2023-04-15T14:19:03.988Z,99797.34
2023-04-15T14:21:33.735Z,99795.09
2023-04-15T14:24:02.652Z,99793.81
2023-04-15T14:26:31.020Z,99803.13
2023-04-15T14:28:59.349Z,99793.03
2023-04-15T14:31:29.161Z,99810.44
2023-04-15T14:33:57.525Z,99818.97
2023-04-15T14:36:26.057Z,99816.19
2023-04-15T14:38:54.373Z,99822.09
2023-04-15T14:41:23.391Z,99815.19
2023-04-15T14:43:51.789Z,99820.66
2023-04-15T14:46:20.312Z,99820.69
2023-04-15T14:48:50.412Z,99828.69
2023-04-15T14:51:18.851Z,99827.06
2023-04-15T14:53:47.404Z,99834.31
2023-04-15T14:56:15.812Z,99842.47
2023-04-15T14:58:44.186Z,99840.59
2023-04-15T15:01:12.602Z,99848.94
2023-04-15T15:03:41.315Z,99848.34
2023-04-15T15:06:11.195Z,99848.31
2023-04-15T15:08:39.628Z,99855.66
2023-04-15T15:11:07.979Z,99864.94
2023-04-15T15:13:36.640Z,99864.47
2023-04-15T15:16:05.602Z,99868.38
2023-04-15T15:18:34.141Z,99861.94
2023-04-15T15:21:02.478Z,99864.59
2023-04-15T15:23:32.182Z,99872.56
2023-04-15T15:26:00.632Z,99879.69
2023-04-15T15:28:29.040Z,99875.25
2023-04-15T15:30:57.530Z,99873.25
2023-04-15T15:33:26.327Z,99876.59
2023-04-15T15:35:55.626Z,99872.00
2023-04-15T15:38:24.000Z,99882.13
2023-04-15T15:40:53.782Z,99873.03
2023-04-15T15:43:22.180Z,99878.16
2023-04-15T15:45:51.781Z,99880.53
2023-04-15T15:48:20.369Z,99884.56
2023-04-15T15:50:48.721Z,99887.81
2023-04-15T15:53:20.808Z,99892.84
2023-04-15T15:55:49.316Z,99895.31
2023-04-15T15:58:19.298Z,99899.44
2023-04-15T16:00:47.756Z,99895.88
2023-04-15T16:03:16.955Z,99902.13
2023-04-15T16:05:46.085Z,99904.56
2023-04-15T16:08:14.546Z,99908.53
2023-04-15T16:10:42.918Z,99908.28
2023-04-15T16:13:11.440Z,99907.97
2023-04-15T16:15:41.198Z,99913.44
2023-04-15T16:18:09.515Z,99926.91
2023-04-15T16:20:39.382Z,99928.06
2023-04-15T16:23:13.498Z,99924.59
2023-04-15T16:25:44.618Z,99931.97
2023-04-15T16:28:25.628Z,99926.97
2023-04-15T16:30:57.280Z,99931.72
2023-04-15T16:33:25.760Z,99937.75
2023-04-15T16:35:54.134Z,99942.38
2023-04-15T16:38:22.521Z,99940.31
2023-04-15T16:40:51.564Z,99938.31
2023-04-15T16:43:20.123Z,99948.97
2023-04-15T16:45:51.429Z,99952.16
2023-04-15T16:48:22.215Z,99953.19
2023-04-15T16:50:50.703Z,99949.44
2023-04-15T16:53:19.288Z,99953.69
2023-04-15T16:55:47.627Z,99953.53
2023-04-15T16:58:15.946Z,99963.00
2023-04-15T17:00:44.392Z,99963.66
2023-04-15T17:03:12.875Z,99971.09
2023-04-15T17:05:43.042Z,99971.91
2023-04-15T17:08:11.334Z,99967.97
2023-04-15T17:10:39.810Z,99972.25
2023-04-15T17:13:08.470Z,99978.44
2023-04-15T17:15:37.015Z,99978.91
2023-04-15T17:18:06.389Z,99977.06
2023-04-15T17:20:34.855Z,99961.00
2023-04-15T17:23:05.518Z,99984.88
2023-04-15T17:25:34.033Z,99986.69
2023-04-15T17:28:02.518Z,99985.78
2023-04-15T17:30:30.963Z,99996.03
2023-04-15T17:32:59.523Z,100002.34
2023-04-15T17:35:27.949Z,99997.69
2023-04-15T17:37:56.290Z,100008.44
2023-04-15T17:40:26.083Z,100014.13
2023-04-15T17:42:54.826Z,100015.16
2023-04-15T17:45:23.199Z,100017.59
2023-04-15T17:47:51.629Z,100025.28
2023-04-15T17:50:20.228Z,100032.56
2023-04-15T17:52:48.711Z,100032.28
2023-04-15T17:55:17.197Z,100037.19
2023-04-15T17:57:48.818Z,100036.56
2023-04-15T18:00:18.278Z,100036.38
2023-04-15T18:02:48.703Z,100044.91
2023-04-15T18:05:18.836Z,100047.66
2023-04-15T18:07:47.473Z,100051.19
2023-04-15T18:10:16.197Z,100054.28
2023-04-15T18:12:44.604Z,100057.91
2023-04-15T18:15:15.661Z,100065.38
2023-04-15T18:17:44.125Z,100075.53
2023-04-15T18:20:13.486Z,100074.25
2023-04-15T18:22:41.935Z,100081.06
2023-04-15T18:25:11.294Z,100082.69
2023-04-15T18:27:40.263Z,100077.34
2023-04-15T18:30:10.932Z,100091.16
2023-04-15T18:32:40.851Z,100097.59
2023-04-15T18:35:10.363Z,100091.72
2023-04-15T18:37:39.014Z,100092.22
2023-04-15T18:40:09.780Z,100102.59
2023-04-15T18:42:38.531Z,100091.44
2023-04-15T18:45:08.372Z,100102.13
2023-04-15T18:47:36.765Z,100101.03
2023-04-15T18:50:08.856Z,100104.59
2023-04-15T18:52:37.275Z,100104.94
2023-04-15T18:55:06.641Z,100115.84
2023-04-15T18:57:36.298Z,100113.56
2023-04-15T19:00:07.799Z,100115.13
2023-04-15T19:02:36.195Z,100124.28
2023-04-15T19:05:06.951Z,100121.47
2023-04-15T19:07:35.699Z,100129.22
2023-04-15T19:10:05.139Z,100131.84
2023-04-15T19:12:33.657Z,100130.47
2023-04-15T19:15:02.086Z,100136.47
2023-04-15T19:17:31.426Z,100136.41
2023-04-15T19:19:59.896Z,100143.94
2023-04-15T19:22:31.274Z,100141.66
2023-04-15T19:24:59.761Z,100136.38
2023-04-15T19:27:28.735Z,100132.75
2023-04-15T19:29:57.133Z,100137.94
2023-04-15T19:32:25.673Z,100134.84
2023-04-15T19:34:54.102Z,100134.41
2023-04-15T19:37:22.525Z,100139.94
2023-04-15T19:39:52.258Z,100148.66
2023-04-15T19:42:20.711Z,100153.53
2023-04-15T19:44:49.236Z,100156.00
2023-04-15T19:47:17.831Z,100156.47
2023-04-15T19:49:46.239Z,100171.88
2023-04-15T19:52:14.976Z,100165.63
2023-04-15T19:54:43.426Z,100170.28
2023-04-15T19:57:13.300Z,100155.25
2023-04-15T19:59:41.809Z,100162.91
2023-04-15T20:02:10.402Z,100161.09
2023-04-15T20:04:38.883Z,100167.47
2023-04-15T20:07:07.300Z,100166.91
2023-04-15T20:09:35.630Z,100167.38
2023-04-15T20:12:46.928Z,100168.34
2023-04-15T20:14:53.903Z,100170.66
2023-04-15T20:17:22.403Z,100172.16
2023-04-15T20:19:50.787Z,100172.47
2023-04-15T20:22:19.208Z,100178.81
2023-04-15T20:24:47.535Z,100185.53
2023-04-15T20:27:16.015Z,100178.97
2023-04-15T20:29:44.449Z,100186.06
2023-04-15T20:32:14.272Z,100181.09
2023-04-15T20:34:42.789Z,100184.63
2023-04-15T20:37:12.580Z,100174.34
2023-04-15T20:39:42.424Z,100185.53
2023-04-15T20:42:11.326Z,100187.34
2023-04-15T20:44:39.854Z,100191.97
2023-04-15T20:47:08.622Z,100178.16
2023-04-15T20:49:39.856Z,100192.59
2023-04-15T20:52:09.767Z,100193.97
2023-04-15T20:54:38.223Z,100193.97
2023-04-15T20:57:06.583Z,100206.59
2023-04-15T20:59:35.963Z,100190.25
2023-04-15T21:02:04.463Z,100187.69
2023-04-15T21:04:32.950Z,100164.19
2023-04-15T21:07:02.784Z,100194.41
2023-04-15T21:09:31.293Z,100193.34
2023-04-15T21:12:01.124Z,100190.34
2023-04-15T21:14:30.588Z,100204.34
2023-04-15T21:16:59.233Z,100204.25
2023-04-15T21:19:27.585Z,100200.34
2023-04-15T21:21:56.063Z,100210.41
2023-04-15T21:24:25.870Z,100202.41
2023-04-15T21:26:54.380Z,100218.84
2023-04-15T21:29:22.742Z,100237.31
2023-04-15T21:31:51.316Z,100225.34
2023-04-15T21:34:19.894Z,100233.69
2023-04-15T21:36:48.376Z,100225.44
2023-04-15T21:39:17.107Z,100237.78
2023-04-15T21:41:48.461Z,100232.16
2023-04-15T21:44:17.621Z,100239.47
2023-04-15T21:46:46.408Z,100249.28
2023-04-15T21:49:14.939Z,100253.81
2023-04-15T21:51:43.340Z,100255.53
2023-04-15T21:54:11.702Z,100266.25
2023-04-15T21:56:40.035Z,100261.63
2023-04-15T21:59:09.851Z,100260.81
2023-04-15T22:01:38.367Z,100259.88
2023-04-15T22:04:07.569Z,100276.16
2023-04-15T22:06:36.287Z,100280.25
2023-04-15T22:09:04.855Z,100267.81
2023-04-15T22:11:33.230Z,100265.09
2023-04-15T22:14:02.247Z,100259.34
2023-04-15T22:16:31.985Z,100265.00
2023-04-15T22:19:00.352Z,100267.34
2023-04-15T22:21:28.855Z,100266.38
2023-04-15T22:24:33.282Z,100277.44
2023-04-15T22:26:45.798Z,100278.16
2023-04-15T22:29:14.211Z,100266.38
2023-04-15T22:31:44.253Z,100282.16
2023-04-15T22:34:14.794Z,100290.50
2023-04-15T22:36:43.306Z,100285.97
2023-04-15T22:39:11.620Z,100275.66
2023-04-15T22:41:39.970Z,100286.41
2023-04-15T22:44:08.390Z,100282.59
2023-04-15T22:46:36.879Z,100286.56
2023-04-15T22:49:09.877Z,100295.44
2023-04-15T22:51:38.465Z,100303.88
2023-04-15T22:54:06.837Z,100307.88
2023-04-15T22:56:35.346Z,100300.66
2023-04-15T22:59:03.674Z,100311.47
2023-04-15T23:01:32.400Z,100302.25
2023-04-15T23:04:07.655Z,100307.53
2023-04-15T23:06:50.843Z,100310.44
2023-04-15T23:09:19.196Z,100311.84
2023-04-15T23:11:48.393Z,100312.06
2023-04-15T23:14:16.754Z,100309.16
2023-04-15T23:16:45.578Z,100321.97
2023-04-15T23:19:13.932Z,100330.53
2023-04-15T23:21:42.269Z,100314.41
2023-04-15T23:24:12.802Z,100318.41
2023-04-15T23:26:41.259Z,100325.66
2023-04-15T23:29:10.204Z,100330.03
2023-04-15T23:31:38.856Z,100323.34
2023-04-15T23:34:07.246Z,100330.56
2023-04-15T23:36:35.615Z,100333.19
2023-04-15T23:39:03.970Z,100325.88
2023-04-15T23:41:33.773Z,100327.06
2023-04-15T23:44:02.188Z,100323.50
2023-04-15T23:46:31.036Z,100321.16
2023-04-15T23:48:59.435Z,100322.03
2023-04-15T23:51:27.862Z,100331.22
2023-04-15T23:53:56.188Z,100334.22
2023-04-15T23:56:24.578Z,100332.09
2023-04-15T23:58:54.281Z,100329.78
